Time;durP1;ratioP1;P1;durP2;ratioP2;P2;SDS_P1;SDS_P2;PMS_P1;PMS_P2;Temp;Humidity;BMP_temperature;BMP_pressure;BME280_temperature;BME280_humidity;BME280_pressure;Samples;Min_cycle;Max_cycle;Signal;HPM_P1;HPM_P2
2023/01/11 00:00:59;;;;;;;4.37;3.17;;;;;;;3.96;nan;94456.84;5004050;28;20228;-67
2023/01/11 00:03:25;;;;;;;4.33;3.87;;;;;;;3.92;nan;94460.28;5005792;28;20353;-66
2023/01/11 00:05:56;;;;;;;6.25;4.10;;;;;;;4.04;nan;94462.56;5006612;28;20684;-65
2023/01/11 00:08:23;;;;;;;6.03;4.30;;;;;;;4.02;nan;94453.41;5005099;28;20211;-67
2023/01/11 00:10:50;;;;;;;4.47;3.80;;;;;;;4.02;nan;94458.44;5006415;28;21049;-67
2023/01/11 00:13:16;;;;;;;5.57;4.90;;;;;;;3.94;nan;94456.06;5001394;28;20207;-67
2023/01/11 00:15:43;;;;;;;10.50;5.80;;;;;;;3.88;nan;94456.16;5005135;28;20210;-67
2023/01/11 00:18:11;;;;;;;9.47;5.60;;;;;;;3.88;nan;94458.69;5006449;28;20210;-66
2023/01/11 00:20:39;;;;;;;11.90;5.50;;;;;;;3.84;nan;94458.75;5003866;28;20214;-67
2023/01/11 00:23:08;;;;;;;7.30;5.43;;;;;;;3.84;nan;94461.28;5003822;28;20191;-67
2023/01/11 00:25:35;;;;;;;4.90;3.83;;;;;;;3.77;nan;94460.53;5005473;28;20207;-66
2023/01/11 00:28:02;;;;;;;4.07;3.33;;;;;;;3.67;nan;94467.44;5005612;28;20199;-66
2023/01/11 00:30:29;;;;;;;5.60;3.90;;;;;;;3.68;nan;94469.09;5006432;28;20288;-68
2023/01/11 00:32:56;;;;;;;3.87;3.57;;;;;;;3.73;nan;94472.31;5004779;28;20214;-68
2023/01/11 00:35:23;;;;;;;4.70;4.30;;;;;;;3.71;nan;94474.03;5007685;28;20300;-67
2023/01/11 00:37:50;;;;;;;5.60;3.53;;;;;;;3.75;nan;94475.66;5003253;28;20861;-67
2023/01/11 00:40:18;;;;;;;4.53;3.90;;;;;;;3.69;nan;94474.94;5005353;28;20264;-67
2023/01/11 00:48:13;;;;;;;4.93;4.37;;;;;;;3.63;nan;94472.53;5008095;28;20210;-69
2023/01/11 00:50:40;;;;;;;4.13;3.63;;;;;;;3.62;nan;94488.44;5008007;28;21171;-68
2023/01/11 00:53:09;;;;;;;8.00;4.70;;;;;;;3.60;nan;94480.09;5008824;28;20217;-67
2023/01/11 00:55:37;;;;;;;7.77;4.80;;;;;;;3.65;nan;94470.81;5008872;28;20203;-68
2023/01/11 00:58:04;;;;;;;8.57;4.97;;;;;;;3.65;nan;94481.69;5010307;28;20242;-67
2023/01/11 01:00:31;;;;;;;5.80;4.77;;;;;;;3.57;nan;94477.63;5000404;28;20328;-67
2023/01/11 01:02:58;;;;;;;5.53;3.63;;;;;;;3.47;nan;94481.13;5005087;28;20215;-67
2023/01/11 01:05:25;;;;;;;5.70;3.07;;;;;;;3.46;nan;94484.53;5007255;28;20587;-67
2023/01/11 01:07:52;;;;;;;5.23;2.80;;;;;;;3.47;nan;94483.66;5006936;28;20206;-68
2023/01/11 01:10:19;;;;;;;4.05;3.10;;;;;;;3.41;nan;94479.56;5007722;28;20217;-68
2023/01/11 01:15:33;;;;;;;3.27;2.70;;;;;;;3.28;nan;94473.91;5008308;28;20202;-68
2023/01/11 01:17:59;;;;;;;3.60;2.73;;;;;;;3.33;nan;94476.34;5008580;28;20214;-68
2023/01/11 01:20:27;;;;;;;3.00;2.80;;;;;;;3.25;nan;94473.94;5008065;28;20215;-68
2023/01/11 01:22:53;;;;;;;2.90;2.70;;;;;;;3.28;nan;94478.91;5006465;28;20213;-67
2023/01/11 01:25:20;;;;;;;3.00;2.80;;;;;;;3.32;nan;94480.53;5007529;28;20215;-67
2023/01/11 01:27:48;;;;;;;3.23;2.93;;;;;;;3.33;nan;94487.22;5007753;28;20294;-67
2023/01/11 01:30:16;;;;;;;3.40;3.10;;;;;;;3.32;nan;94492.25;5008323;28;20744;-66
2023/01/11 01:32:42;;;;;;;5.77;3.07;;;;;;;3.26;nan;94489.81;5005706;28;20665;-66
2023/01/11 01:35:10;;;;;;;3.93;3.40;;;;;;;3.30;nan;94484.75;5007671;28;20226;-66
2023/01/11 01:37:36;;;;;;;4.93;3.10;;;;;;;3.28;nan;94493.97;5009006;28;20211;-68
2023/01/11 01:40:04;;;;;;;4.77;3.17;;;;;;;3.30;nan;94502.31;5009361;28;20242;-67
2023/01/11 01:42:31;;;;;;;3.80;3.50;;;;;;;3.22;nan;94499.09;5027144;28;20983;-66
2023/01/11 01:45:05;;;;;;;7.30;5.10;;;;;;;3.26;nan;94495.69;5030350;28;20762;-67
2023/01/11 01:47:45;;;;;;;4.00;3.47;;;;;;;3.22;nan;94488.22;5031307;28;20286;-67
2023/01/11 01:50:17;;;;;;;3.83;3.50;;;;;;;3.30;nan;94497.31;5032838;28;20191;-67
2023/01/11 01:52:49;;;;;;;5.57;4.17;;;;;;;3.24;nan;94499.91;5032138;28;20614;-68
2023/01/11 01:55:23;;;;;;;4.47;3.47;;;;;;;3.18;nan;94501.69;5037025;28;20275;-68
2023/01/11 01:57:51;;;;;;;6.63;4.33;;;;;;;3.22;nan;94506.63;5037943;28;20266;-68
2023/01/11 02:00:20;;;;;;;4.10;3.67;;;;;;;3.31;nan;94496.44;5037410;28;20203;-69
2023/01/11 02:02:48;;;;;;;4.23;3.90;;;;;;;3.30;nan;94497.31;5034524;28;20196;-68
2023/01/11 02:05:17;;;;;;;7.43;3.83;;;;;;;3.39;nan;94497.19;5028796;28;20214;-67
2023/01/11 02:07:45;;;;;;;5.20;3.87;;;;;;;3.17;nan;94502.53;5036214;28;20205;-67
2023/01/11 02:10:15;;;;;;;4.37;3.97;;;;;;;3.20;nan;94505.84;5037625;28;20674;-68
2023/01/11 02:12:46;;;;;;;6.75;3.55;;;;;;;3.34;nan;94514.00;5037856;28;20314;-68
2023/01/11 02:15:14;;;;;;;4.97;3.10;;;;;;;3.11;nan;94521.03;5038200;28;20200;-67
2023/01/11 02:17:42;;;;;;;4.83;3.60;;;;;;;3.24;nan;94527.50;5037682;28;20196;-67
2023/01/11 02:20:26;;;;;;;4.15;3.78;;;;;;;3.33;nan;94522.38;5037549;28;20663;-68
2023/01/11 02:23:31;;;;;;;4.37;4.07;;;;;;;3.53;nan;94533.81;5037984;28;20265;-68
2023/01/11 02:26:46;;;;;;;4.03;3.63;;;;;;;3.58;nan;94542.09;5036955;28;20301;-68
2023/01/11 02:29:27;;;;;;;3.27;3.07;;;;;;;3.60;nan;94558.81;5032846;28;20199;-67
2023/01/11 02:32:05;;;;;;;3.75;3.55;;;;;;;3.69;nan;94562.88;5037695;28;20223;-67
2023/01/11 02:34:40;;;;;;;3.03;2.83;;;;;;;3.66;nan;94570.47;5038349;28;20257;-69
2023/01/11 02:37:26;;;;;;;3.30;2.63;;;;;;;3.62;nan;94559.63;5037887;28;20226;-68
2023/01/11 02:40:00;;;;;;;4.00;3.13;;;;;;;3.63;nan;94575.53;5037169;28;20239;-67
2023/01/11 02:45:34;;;;;;;3.53;2.60;;;;;;;3.77;nan;94578.66;5037472;28;20222;-67
2023/01/11 02:48:04;;;;;;;2.70;2.47;;;;;;;3.87;nan;94571.81;5037821;28;20203;-67
2023/01/11 02:50:37;;;;;;;2.47;2.30;;;;;;;3.79;nan;94574.44;5037859;28;20673;-68
2023/01/11 02:53:13;;;;;;;3.63;3.35;;;;;;;3.81;nan;94580.28;5037359;28;20208;-67
2023/01/11 02:55:44;;;;;;;2.73;2.53;;;;;;;3.77;nan;94573.63;5038016;28;20199;-67
2023/01/11 02:58:12;;;;;;;3.23;2.70;;;;;;;3.80;nan;94583.63;5037674;28;20309;-67
2023/01/11 03:00:42;;;;;;;2.53;2.40;;;;;;;3.84;nan;94585.25;5036314;28;20199;-67
2023/01/11 03:03:13;;;;;;;2.37;2.17;;;;;;;3.86;nan;94583.56;5037683;28;20203;-67
2023/01/11 03:05:45;;;;;;;2.60;2.47;;;;;;;3.88;nan;94584.38;5035629;28;20196;-67
2023/01/11 03:08:53;;;;;;;2.92;2.72;;;;;;;3.97;nan;94589.22;5036614;28;20252;-67
2023/01/11 03:14:26;;;;;;;3.57;2.10;;;;;;;4.06;nan;94591.59;5036881;28;20203;-68
2023/01/11 03:17:05;;;;;;;3.05;2.50;;;;;;;4.13;nan;94586.47;5037174;28;20692;-67
2023/01/11 03:19:39;;;;;;;2.50;2.30;;;;;;;4.05;nan;94584.91;5037163;28;20692;-67
2023/01/11 03:22:12;;;;;;;2.50;2.30;;;;;;;4.14;nan;94593.19;5036979;28;20273;-66
2023/01/11 03:24:46;;;;;;;2.83;2.63;;;;;;;4.18;nan;94590.59;5036992;28;20214;-67
2023/01/11 03:27:21;;;;;;;2.83;2.53;;;;;;;4.22;nan;94586.31;5037111;28;20276;-67
2023/01/11 03:29:53;;;;;;;3.67;3.40;;;;;;;4.23;nan;94587.97;5037389;28;20202;-68
2023/01/11 03:32:28;;;;;;;2.60;2.40;;;;;;;4.26;nan;94588.75;5036778;28;20727;-67
2023/01/11 03:35:08;;;;;;;2.90;2.70;;;;;;;4.28;nan;94587.03;5036650;28;20212;-68
2023/01/11 03:37:40;;;;;;;3.10;2.80;;;;;;;4.33;nan;94581.94;5036534;28;20204;-68
2023/01/11 03:40:12;;;;;;;3.87;3.53;;;;;;;4.29;nan;94585.38;5035583;28;20630;-67
2023/01/11 03:45:26;;;;;;;7.00;6.40;;;;;;;4.18;nan;94587.25;5034763;28;20234;-67
2023/01/11 03:47:56;;;;;;;7.77;6.97;;;;;;;4.19;nan;94591.41;5036394;28;20564;-68
2023/01/11 03:50:24;;;;;;;7.73;6.80;;;;;;;4.23;nan;94598.03;5037020;28;20199;-66
2023/01/11 03:52:52;;;;;;;10.17;8.40;;;;;;;4.25;nan;94588.78;5035999;28;20230;-67
2023/01/11 03:55:23;;;;;;;10.30;8.10;;;;;;;4.26;nan;94590.44;5036684;28;20203;-67
2023/01/11 03:57:50;;;;;;;12.02;8.50;;;;;;;4.21;nan;94594.72;5036159;28;21214;-67
2023/01/11 04:00:18;;;;;;;8.63;7.73;;;;;;;4.20;nan;94598.94;5037396;28;20207;-67
2023/01/11 04:02:45;;;;;;;11.17;9.03;;;;;;;4.15;nan;94594.84;5036483;28;20199;-68
2023/01/11 04:05:13;;;;;;;9.67;8.13;;;;;;;4.07;nan;94603.31;5031153;28;20196;-68
2023/01/11 04:07:40;;;;;;;11.85;8.55;;;;;;;4.10;nan;94598.25;5026549;28;20188;-68
2023/01/11 04:10:08;;;;;;;10.40;8.03;;;;;;;4.18;nan;94604.84;5026590;28;20191;-67
2023/01/11 04:12:35;;;;;;;8.80;7.90;;;;;;;4.22;nan;94601.41;5026080;28;20204;-67
2023/01/11 04:15:04;;;;;;;9.85;8.85;;;;;;;4.31;nan;94607.13;5026372;28;20188;-68
2023/01/11 04:17:30;;;;;;;10.07;7.97;;;;;;;4.36;nan;94612.09;5026720;28;20463;-68
2023/01/11 04:19:57;;;;;;;9.07;7.10;;;;;;;4.37;nan;94612.06;5026044;28;20199;-66
2023/01/11 04:22:25;;;;;;;8.55;6.82;;;;;;;4.39;nan;94610.34;5025989;28;20180;-67
2023/01/11 04:24:52;;;;;;;7.20;6.53;;;;;;;4.46;nan;94618.59;5027087;28;20192;-66
2023/01/11 04:27:18;;;;;;;6.03;5.63;;;;;;;4.47;nan;94617.75;5027946;28;20202;-67
2023/01/11 04:29:45;;;;;;;6.10;5.50;;;;;;;4.38;nan;94623.78;5028361;28;20204;-68
2023/01/11 04:32:12;;;;;;;6.93;6.32;;;;;;;4.31;nan;94628.94;5027544;28;20226;-66
2023/01/11 04:34:38;;;;;;;6.83;6.27;;;;;;;4.32;nan;94628.06;5028112;28;20676;-65
2023/01/11 04:37:05;;;;;;;6.97;6.27;;;;;;;4.21;nan;94630.75;5027875;28;20208;-68
2023/01/11 04:39:33;;;;;;;6.07;5.60;;;;;;;4.18;nan;94625.78;5027168;28;20246;-67
2023/01/11 04:42:18;;;;;;;5.73;5.23;;;;;;;4.20;nan;94631.63;5026036;28;20203;-67
2023/01/11 04:44:44;;;;;;;21.77;13.90;;;;;;;4.26;nan;94640.75;5027653;28;20645;-68
2023/01/11 04:47:11;;;;;;;20.52;13.63;;;;;;;4.24;nan;94635.72;5027684;28;20203;-67
2023/01/11 04:49:37;;;;;;;17.55;10.27;;;;;;;4.26;nan;94640.75;5027395;28;20195;-66
2023/01/11 04:52:04;;;;;;;23.48;14.88;;;;;;;4.29;nan;94643.22;5027324;28;20281;-67
2023/01/11 04:54:32;;;;;;;38.47;21.43;;;;;;;4.32;nan;94640.66;5027001;28;20203;-67
2023/01/11 04:56:59;;;;;;;29.75;16.88;;;;;;;4.36;nan;94649.81;5027136;28;20200;-67
2023/01/11 04:59:26;;;;;;;9.55;8.52;;;;;;;4.41;nan;94655.59;5026768;28;20673;-67
2023/01/11 05:01:53;;;;;;;7.70;6.80;;;;;;;4.45;nan;94657.22;5026821;28;20273;-68
2023/01/11 05:04:19;;;;;;;6.10;5.53;;;;;;;4.47;nan;94650.44;5027204;28;20199;-66
2023/01/11 05:06:46;;;;;;;6.05;5.55;;;;;;;4.47;nan;94658.00;5026581;28;20276;-67
2023/01/11 05:09:15;;;;;;;5.78;5.20;;;;;;;4.49;nan;94651.25;5026511;28;20203;-68
2023/01/11 05:11:43;;;;;;;4.72;4.32;;;;;;;4.44;nan;94668.97;5026325;28;20223;-67
2023/01/11 05:14:10;;;;;;;3.90;3.70;;;;;;;4.39;nan;94669.88;5026779;28;20206;-68
2023/01/11 05:16:37;;;;;;;5.05;4.72;;;;;;;4.36;nan;94657.34;5027271;28;20199;-68
2023/01/11 05:19:06;;;;;;;3.33;3.13;;;;;;;4.54;nan;94673.84;5027325;28;20207;-67
2023/01/11 05:21:34;;;;;;;3.80;3.60;;;;;;;4.56;nan;94675.47;5026966;28;20290;-69
2023/01/11 05:24:02;;;;;;;5.35;4.75;;;;;;;4.47;nan;94682.31;5026777;28;20215;-69
2023/01/11 05:26:29;;;;;;;18.95;11.40;;;;;;;4.42;nan;94677.41;5026774;28;20715;-69
2023/01/11 05:29:00;;;;;;;4.65;4.25;;;;;;;4.46;nan;94686.53;5026393;28;20588;-68
2023/01/11 05:31:27;;;;;;;7.40;5.55;;;;;;;4.40;nan;94674.91;5026505;28;20223;-68
2023/01/11 05:33:57;;;;;;;2.90;2.70;;;;;;;4.41;nan;94676.56;5026926;28;20249;-70
2023/01/11 05:36:24;;;;;;;2.72;2.53;;;;;;;4.40;nan;94681.63;5027171;28;20630;-68
2023/01/11 05:38:53;;;;;;;3.27;2.97;;;;;;;4.36;nan;94683.34;5026762;28;20246;-68
2023/01/11 05:41:22;;;;;;;6.97;6.23;;;;;;;4.30;nan;94680.09;5026890;28;20199;-68
2023/01/11 05:46:37;;;;;;;2.63;2.50;;;;;;;4.32;nan;94683.41;5027360;28;20321;-69
2023/01/11 05:49:05;;;;;;;3.10;2.90;;;;;;;4.29;nan;94693.50;5027102;28;20195;-68
2023/01/11 05:51:32;;;;;;;2.45;2.30;;;;;;;4.16;nan;94687.84;5026855;28;20257;-70
2023/01/11 05:54:00;;;;;;;3.13;2.43;;;;;;;4.25;nan;94691.91;5027021;28;20270;-67
2023/01/11 05:56:27;;;;;;;2.00;1.90;;;;;;;4.22;nan;94691.94;5027756;28;20214;-67
2023/01/11 05:58:54;;;;;;;2.47;2.28;;;;;;;4.32;nan;94706.06;5026863;28;20682;-66
2023/01/11 06:01:23;;;;;;;2.85;2.65;;;;;;;4.35;nan;94708.53;5027214;28;20281;-68
2023/01/11 06:03:52;;;;;;;2.90;2.80;;;;;;;4.40;nan;94702.56;5026394;28;20265;-68
2023/01/11 06:06:21;;;;;;;3.00;2.80;;;;;;;4.43;nan;94697.50;5026917;28;20211;-67
2023/01/11 06:08:48;;;;;;;3.70;3.40;;;;;;;4.44;nan;94706.72;5026639;28;20599;-67
2023/01/11 06:11:16;;;;;;;4.27;3.87;;;;;;;4.52;nan;94713.28;5026554;28;20207;-69
2023/01/11 06:13:42;;;;;;;4.78;3.72;;;;;;;4.46;nan;94714.19;5025832;28;20234;-68
2023/01/11 06:16:11;;;;;;;3.70;3.40;;;;;;;4.52;nan;94716.63;5026430;28;20597;-68
2023/01/11 06:18:40;;;;;;;5.03;3.60;;;;;;;4.57;nan;94722.44;5026552;28;20211;-67
2023/01/11 06:21:09;;;;;;;3.80;3.50;;;;;;;4.53;nan;94720.81;5026114;28;20204;-68
2023/01/11 06:23:38;;;;;;;3.67;3.38;;;;;;;4.55;nan;94741.75;5026368;28;20196;-67
2023/01/11 06:26:06;;;;;;;3.30;3.00;;;;;;;4.51;nan;94735.09;5025845;28;20211;-69
2023/01/11 06:28:33;;;;;;;3.45;3.15;;;;;;;4.67;nan;94745.78;5026592;28;20279;-69
2023/01/11 06:31:00;;;;;;;7.30;5.13;;;;;;;4.79;nan;94741.34;5025989;28;20206;-68
2023/01/11 06:33:28;;;;;;;4.38;3.97;;;;;;;5.24;nan;94748.13;5025719;28;20224;-69
2023/01/11 06:35:56;;;;;;;3.92;3.58;;;;;;;5.61;nan;94753.34;5026300;28;20207;-68
2023/01/11 06:38:25;;;;;;;2.92;2.70;;;;;;;5.75;nan;94751.34;5025857;28;20239;-67
2023/01/11 06:40:53;;;;;;;3.40;3.10;;;;;;;5.75;nan;94756.41;5026812;28;20196;-69
2023/01/11 06:43:21;;;;;;;3.88;3.40;;;;;;;5.82;nan;94758.78;5029292;28;20196;-70
2023/01/11 06:45:48;;;;;;;3.47;3.17;;;;;;;5.74;nan;94759.78;5029984;28;20200;-68
2023/01/11 06:48:15;;;;;;;3.10;2.90;;;;;;;5.77;nan;94764.78;5029414;28;20211;-70
2023/01/11 06:50:41;;;;;;;3.15;2.95;;;;;;;5.84;nan;94765.47;5029619;28;20199;-68
2023/01/11 06:53:09;;;;;;;3.85;3.55;;;;;;;5.85;nan;94773.03;5029797;28;20223;-66
2023/01/11 06:55:37;;;;;;;3.65;3.45;;;;;;;5.95;nan;94771.97;5029273;28;20696;-67
2023/01/11 06:58:04;;;;;;;4.05;3.75;;;;;;;5.97;nan;94767.75;5029368;28;20249;-69
2023/01/11 07:00:32;;;;;;;4.60;4.00;;;;;;;6.10;nan;94778.44;5029719;28;20220;-69
2023/01/11 07:03:01;;;;;;;3.50;3.20;;;;;;;6.24;nan;94773.06;5029283;28;20219;-70
2023/01/11 07:05:28;;;;;;;6.38;4.70;;;;;;;6.36;nan;94786.28;5029084;28;20266;-68
2023/01/11 07:07:55;;;;;;;5.47;4.88;;;;;;;6.43;nan;94784.44;5029190;28;20200;-68
2023/01/11 07:10:22;;;;;;;4.85;4.40;;;;;;;6.52;nan;94786.75;5029458;28;20257;-69
2023/01/11 07:12:50;;;;;;;4.60;4.20;;;;;;;6.63;nan;94789.88;5029107;28;20790;-69
2023/01/11 07:15:18;;;;;;;4.90;3.88;;;;;;;6.74;nan;94800.56;5028927;28;20210;-68
2023/01/11 07:17:46;;;;;;;3.58;3.20;;;;;;;6.87;nan;94793.53;5028785;28;20285;-68
2023/01/11 07:20:13;;;;;;;5.45;4.10;;;;;;;6.96;nan;94807.63;5029147;28;20528;-69
2023/01/11 07:22:40;;;;;;;3.53;3.22;;;;;;;6.92;nan;94801.00;5028879;28;20727;-69
2023/01/11 07:25:08;;;;;;;3.65;3.35;;;;;;;6.91;nan;94805.22;5028843;28;20200;-68
2023/01/11 07:27:34;;;;;;;3.00;2.80;;;;;;;6.99;nan;94807.56;5028858;28;20203;-70
2023/01/11 07:30:02;;;;;;;3.08;2.78;;;;;;;6.96;nan;94807.63;5028440;28;20816;-71
2023/01/11 07:32:29;;;;;;;3.50;2.50;;;;;;;7.07;nan;94811.56;5028874;28;20230;-70
2023/01/11 07:34:56;;;;;;;3.03;2.83;;;;;;;7.06;nan;94816.66;5028813;28;20258;-69
2023/01/11 07:37:25;;;;;;;3.15;2.67;;;;;;;7.01;nan;94813.41;5028505;28;20204;-68
2023/01/11 07:39:51;;;;;;;3.05;2.85;;;;;;;7.05;nan;94820.06;5028568;28;20266;-71
2023/01/11 07:45:04;;;;;;;2.28;2.10;;;;;;;7.55;nan;94823.03;5028488;28;20203;-70
2023/01/11 07:47:31;;;;;;;2.90;2.70;;;;;;;7.78;nan;94823.25;5028379;28;20200;-68
2023/01/11 07:49:57;;;;;;;5.10;3.90;;;;;;;7.95;nan;94821.09;5028905;28;20203;-68
2023/01/11 07:52:24;;;;;;;6.55;3.75;;;;;;;8.03;nan;94834.38;5027902;28;20210;-70
2023/01/11 07:54:51;;;;;;;3.92;3.50;;;;;;;7.96;nan;94839.63;5028308;28;20700;-69
2023/01/11 07:57:17;;;;;;;5.25;4.22;;;;;;;8.00;nan;94847.09;5028460;28;20206;-69
2023/01/11 07:59:44;;;;;;;4.72;4.10;;;;;;;7.93;nan;94848.13;5027886;28;20207;-70
2023/01/11 08:02:12;;;;;;;5.00;4.10;;;;;;;8.01;nan;94858.88;5028439;28;20200;-69
2023/01/11 08:04:39;;;;;;;4.45;4.03;;;;;;;7.97;nan;94844.66;5027691;28;20732;-67
2023/01/11 08:07:05;;;;;;;3.83;3.45;;;;;;;7.90;nan;94848.25;5028404;28;20635;-68
2023/01/11 08:09:32;;;;;;;4.25;3.85;;;;;;;7.87;nan;94860.97;5028265;28;20269;-67
2023/01/11 08:14:43;;;;;;;2.40;2.20;;;;;;;7.71;nan;94864.75;5027860;28;20210;-71
2023/01/11 08:17:13;;;;;;;6.80;4.03;;;;;;;7.65;nan;94865.75;5027648;28;20673;-70
2023/01/11 08:19:40;;;;;;;2.60;2.40;;;;;;;7.47;nan;94879.66;5027512;28;20758;-69
2023/01/11 08:22:08;;;;;;;3.33;2.72;;;;;;;7.33;nan;94876.66;5027929;28;20212;-69
2023/01/11 08:24:35;;;;;;;2.70;2.53;;;;;;;7.35;nan;94889.25;5027701;28;20290;-68
2023/01/11 08:27:02;;;;;;;2.55;2.25;;;;;;;7.40;nan;94895.03;5027405;28;20620;-68
2023/01/11 08:29:29;;;;;;;2.63;2.45;;;;;;;7.43;nan;94894.94;5027987;28;20724;-68
2023/01/11 08:31:55;;;;;;;2.75;2.55;;;;;;;7.65;nan;94902.84;5027723;28;20638;-68
2023/01/11 08:34:24;;;;;;;4.68;3.00;;;;;;;8.00;nan;94907.84;5027510;28;20227;-69
2023/01/11 08:36:52;;;;;;;2.50;2.30;;;;;;;8.24;nan;94905.53;5027676;28;20200;-67
2023/01/11 08:39:18;;;;;;;1.98;1.88;;;;;;;8.19;nan;94909.00;5027572;28;20247;-68
2023/01/11 08:41:45;;;;;;;1.83;1.73;;;;;;;8.06;nan;94907.69;5027718;28;20238;-69
2023/01/11 08:44:12;;;;;;;1.60;1.50;;;;;;;7.93;nan;94911.38;5027230;28;20204;-70
2023/01/11 08:46:38;;;;;;;1.88;1.77;;;;;;;7.78;nan;94911.78;5027564;28;20204;-68
2023/01/11 08:49:10;;;;;;;2.85;1.75;;;;;;;7.90;nan;94914.03;5027566;28;20653;-67
2023/01/11 08:51:39;;;;;;;1.88;1.73;;;;;;;7.91;nan;94918.22;5026997;28;20707;-70
2023/01/11 08:54:08;;;;;;;2.58;1.77;;;;;;;7.86;nan;94914.97;5027411;28;20288;-67
2023/01/11 08:56:35;;;;;;;1.75;1.65;;;;;;;7.86;nan;94917.50;5026983;28;20250;-68
2023/01/11 08:59:02;;;;;;;2.75;2.55;;;;;;;7.93;nan;94916.44;5026977;28;20199;-67
2023/01/11 09:01:29;;;;;;;5.05;2.25;;;;;;;7.95;nan;94917.25;5026985;28;20206;-69
2023/01/11 09:03:56;;;;;;;2.78;1.88;;;;;;;8.23;nan;94929.19;5025893;28;20211;-69
2023/01/11 09:06:23;;;;;;;1.90;1.67;;;;;;;8.86;nan;94921.53;5026993;28;20195;-69
2023/01/11 09:08:51;;;;;;;2.85;1.48;;;;;;;9.86;nan;94927.72;5026729;28;20219;-67
2023/01/11 09:14:02;;;;;;;2.97;1.90;;;;;;;11.69;nan;94913.38;5026694;28;20238;-68
2023/01/11 09:16:29;;;;;;;1.55;1.45;;;;;;;12.32;nan;94915.03;5026915;28;20203;-68
2023/01/11 09:18:55;;;;;;;1.15;1.05;;;;;;;-142.91;100.00;56616.03;5026710;28;20673;-69
2023/01/11 09:21:23;;;;;;;1.17;1.02;;;;;;;-142.91;100.00;56616.03;5026779;28;20269;-69
2023/01/11 09:23:51;;;;;;;2.90;0.70;;;;;;;-142.91;100.00;56616.03;5027006;28;20294;-70
2023/01/11 09:26:17;;;;;;;0.70;0.70;;;;;;;-142.91;100.00;56616.03;5027116;28;20200;-68
2023/01/11 09:28:44;;;;;;;1.30;0.85;;;;;;;-142.91;100.00;56616.03;5026852;28;20200;-69
2023/01/11 09:31:11;;;;;;;1.25;1.15;;;;;;;-142.91;100.00;56616.03;5026734;28;20261;-69
2023/01/11 09:33:38;;;;;;;0.75;0.75;;;;;;;-142.91;100.00;56616.03;5026676;28;20665;-70
2023/01/11 09:36:05;;;;;;;0.85;0.82;;;;;;;-142.91;100.00;56616.03;5026959;28;20296;-69
2023/01/11 09:38:32;;;;;;;0.73;0.73;;;;;;;-142.91;100.00;56616.03;5455994;22;20458;-71
2023/01/11 09:41:11;;;;;;;1.00;1.00;;;;;;;-142.91;100.00;56616.03;4968952;28;20682;-70
2023/01/11 09:43:46;;;;;;;0.80;0.80;;;;;;;-142.91;100.00;56616.03;4986933;28;20204;-72
2023/01/11 09:46:14;;;;;;;1.95;0.80;;;;;;;-142.91;100.00;56616.03;4988905;28;20199;-70
2023/01/11 09:48:47;;;;;;;0.82;0.82;;;;;;;-142.91;100.00;56616.03;4986909;28;20218;-76
2023/01/11 09:51:16;;;;;;;0.90;0.90;;;;;;;-142.91;100.00;56616.03;4986806;28;20207;-73
2023/01/11 09:53:49;;;;;;;0.90;0.90;;;;;;;-142.91;100.00;56616.03;4987042;28;20703;-72
2023/01/11 09:56:24;;;;;;;0.52;0.52;;;;;;;-142.91;100.00;56616.03;4987371;28;20294;-75
2023/01/11 09:59:04;;;;;;;0.80;0.80;;;;;;;-142.91;100.00;56616.03;4987468;28;20211;-73
2023/01/11 10:01:37;;;;;;;1.27;0.90;;;;;;;-142.91;100.00;56616.03;4987057;28;20680;-71
2023/01/11 10:04:31;;;;;;;1.10;1.10;;;;;;;-142.91;100.00;56616.03;4987847;28;20270;-72
2023/01/11 10:07:21;;;;;;;1.00;1.00;;;;;;;-142.91;100.00;56616.03;4988901;28;20207;-74
2023/01/11 10:10:00;;;;;;;1.13;1.02;;;;;;;-142.91;100.00;56616.03;4991243;28;20211;-76
2023/01/11 10:12:42;;;;;;;1.88;1.50;;;;;;;-142.91;100.00;56616.03;4992231;28;20270;-76
2023/01/11 10:15:16;;;;;;;2.53;1.92;;;;;;;-142.91;100.00;56616.03;4989574;28;20223;-71
2023/01/11 10:17:51;;;;;;;2.13;1.70;;;;;;;-142.91;100.00;56616.03;4993301;28;20211;-73
2023/01/11 10:20:26;;;;;;;1.45;1.35;;;;;;;-142.91;100.00;56616.03;4990332;28;20202;-73
2023/01/11 10:22:59;;;;;;;1.50;1.40;;;;;;;-142.91;100.00;56616.03;4993793;28;20207;-74
2023/01/11 10:25:33;;;;;;;1.70;1.60;;;;;;;-142.91;100.00;56616.03;4991991;28;20206;-74
2023/01/11 10:28:06;;;;;;;1.35;1.25;;;;;;;-142.91;100.00;56616.03;4993895;28;20305;-80
2023/01/11 10:30:50;;;;;;;3.15;1.80;;;;;;;-142.91;100.00;56616.03;4991571;28;20224;-76
2023/01/11 10:33:37;;;;;;;1.88;1.73;;;;;;;-142.91;100.00;56616.03;4993635;28;20303;-76
2023/01/11 10:36:24;;;;;;;2.30;1.80;;;;;;;-142.91;100.00;56616.03;4993177;28;20204;-75
2023/01/11 10:39:10;;;;;;;1.40;1.30;;;;;;;-142.91;100.00;56616.03;4991080;28;20281;-74
2023/01/11 10:41:51;;;;;;;1.20;1.20;;;;;;;-142.91;100.00;56616.03;4993208;28;20797;-78
2023/01/11 10:44:29;;;;;;;2.90;1.40;;;;;;;-142.91;100.00;56616.03;4993481;28;20206;-77
2023/01/11 10:46:58;;;;;;;1.55;1.45;;;;;;;-142.91;100.00;56616.03;4992998;28;20207;-77
2023/01/11 10:49:38;;;;;;;1.65;1.55;;;;;;;-142.91;100.00;56616.03;4981189;28;20212;-72
2023/01/11 10:52:18;;;;;;;3.60;2.20;;;;;;;-142.91;100.00;56616.03;4993694;28;20674;-76
2023/01/11 10:54:48;;;;;;;5.15;2.30;;;;;;;-142.91;100.00;56616.03;4994655;28;20304;-75
2023/01/11 10:57:22;;;;;;;2.47;2.38;;;;;;;-142.91;100.00;56616.03;4993246;28;20218;-75
2023/01/11 11:00:07;;;;;;;2.67;2.47;;;;;;;-142.91;100.00;56616.03;4993759;28;20747;-75
2023/01/11 11:02:54;;;;;;;2.45;2.25;;;;;;;-142.91;100.00;56616.03;4993896;28;20196;-77
2023/01/11 11:05:31;;;;;;;2.40;2.20;;;;;;;-142.91;100.00;56616.03;4992015;28;20204;-80
2023/01/11 11:08:02;;;;;;;2.80;2.45;;;;;;;-142.91;100.00;56616.03;4993842;28;20217;-76
2023/01/11 11:10:35;;;;;;;3.03;1.45;;;;;;;-142.91;100.00;56616.03;4992214;28;20212;-77
2023/01/11 11:13:12;;;;;;;3.05;2.40;;;;;;;-142.91;100.00;56616.03;4995052;28;20203;-76
2023/01/11 11:15:49;;;;;;;3.45;2.45;;;;;;;-142.91;100.00;56616.03;4994327;28;20207;-73
2023/01/11 11:18:16;;;;;;;3.55;2.28;;;;;;;-142.91;100.00;56616.03;4993535;28;20203;-83
2023/01/11 11:20:45;;;;;;;2.08;1.98;;;;;;;-142.91;100.00;56616.03;4992561;28;20680;-73
2023/01/11 11:23:16;;;;;;;2.63;2.42;;;;;;;-142.91;100.00;56616.03;4993647;28;20999;-80
2023/01/11 11:25:48;;;;;;;1.70;1.60;;;;;;;-142.91;100.00;56616.03;4993323;28;20693;-78
2023/01/11 11:28:26;;;;;;;1.80;1.70;;;;;;;-142.91;100.00;56616.03;4992282;28;20206;-76
2023/01/11 11:30:56;;;;;;;1.90;1.80;;;;;;;-142.91;100.00;56616.03;4991514;28;20298;-77
2023/01/11 11:33:25;;;;;;;2.45;1.70;;;;;;;-142.91;100.00;56616.03;4994842;28;20204;-77
2023/01/11 11:35:57;;;;;;;1.35;1.30;;;;;;;-142.91;100.00;56616.03;4992371;28;20231;-75
2023/01/11 11:38:25;;;;;;;1.85;1.75;;;;;;;-142.91;100.00;56616.03;4991271;28;20671;-79
2023/01/11 11:41:06;;;;;;;1.55;1.45;;;;;;;-142.91;100.00;56616.03;4990936;28;20211;-79
2023/01/11 11:43:35;;;;;;;2.35;1.50;;;;;;;-142.91;100.00;56616.03;4993752;28;20208;-74
2023/01/11 11:46:04;;;;;;;2.05;1.95;;;;;;;-142.91;100.00;56616.03;4991250;28;20645;-77
2023/01/11 11:48:33;;;;;;;2.78;2.58;;;;;;;-142.91;100.00;56616.03;4993695;28;20297;-79
2023/01/11 11:51:02;;;;;;;4.18;2.30;;;;;;;-142.91;100.00;56616.03;4992434;28;20208;-82
2023/01/11 11:53:43;;;;;;;5.28;2.70;;;;;;;-142.91;100.00;56616.03;4995402;28;20294;-75
2023/01/11 11:56:20;;;;;;;2.63;2.42;;;;;;;-142.91;100.00;56616.03;4995545;28;20203;-75
2023/01/11 11:58:47;;;;;;;2.80;2.60;;;;;;;-142.91;100.00;56616.03;4993976;28;20208;-80
2023/01/11 12:01:26;;;;;;;2.95;2.30;;;;;;;-142.91;100.00;56616.03;4993967;28;20200;-74
2023/01/11 12:03:57;;;;;;;5.10;2.70;;;;;;;-142.91;100.00;56616.03;4992941;28;20195;-72
2023/01/11 12:06:27;;;;;;;4.30;2.95;;;;;;;-142.91;100.00;56616.03;4993156;28;20211;-77
2023/01/11 12:08:56;;;;;;;2.90;2.70;;;;;;;-142.91;100.00;56616.03;4993878;28;20207;-73
2023/01/11 12:11:31;;;;;;;2.08;1.95;;;;;;;-142.91;100.00;56616.03;4991851;28;20214;-73
2023/01/11 12:14:01;;;;;;;3.85;2.78;;;;;;;-142.91;100.00;56616.03;4993637;28;20231;-69
2023/01/11 12:16:35;;;;;;;2.40;2.30;;;;;;;-142.91;100.00;56616.03;4995359;28;20235;-77
2023/01/11 12:19:03;;;;;;;2.30;2.20;;;;;;;-142.91;100.00;56616.03;4993902;28;20215;-75
2023/01/11 12:21:30;;;;;;;2.63;2.38;;;;;;;-142.91;100.00;56616.03;4992733;28;20219;-74
2023/01/11 12:24:18;;;;;;;2.63;2.20;;;;;;;-142.91;100.00;56616.03;4993042;28;20870;-77
2023/01/11 12:26:57;;;;;;;2.55;2.40;;;;;;;-142.91;100.00;56616.03;4993168;28;20302;-79